Dernières infos :  

11/10/2017  Mise à jour des tableaux d'analyses décadaires : rubrique climatologie
01/10/2017  Mise à jour des tableaux d'analyses décadaires, mensuelles et annuelles : rubrique climatologie
01/10/2017 Mise en ligne de la synthèse climatologique de Septembre 2017 : 
CLIQUEZ ICI   

Si l'entête du tableau ne s'affiche pas correctement, => actualisez la page (F5 avec Internet Explorer, Chrome...).
Utilisez l'ascenseur sur la droite des lignes du tableau pour faire défiler verticalement les jours du mois.

TABLEAU DES DONNEES COMPLETES NOAA DE FEVRIER 2016

DATE TEMPERATURE
sous abri
TEMPARATURE 
au sol
VENT  et  Indice de Refroidissement Eolien  PRECIPITATIONS (en mm/m2)
et Intensité
PRESSION ATMOSPHERIQUE (en hPa) HUMIDITE de l'AIR RADIATIONS SOLAIRES (en W/m2)
Mini Moy. Maxi Mini Moy. Maxi Moyen Rafale I.R.E.
Minii
Précip. jour Cumul mois Intensité Maxi Mini Moy. Maxi Mini Moy. Maxi Pic maxi du jour Total jour
01/02/2016 9.5° 11.2° 13° 8.3° 10.9° 18.9° 3.7km/h dir NO 22.5km/h dir NO 9.5° 0.4 0.4 1025.8 1029.4 1032.1 73% 89% 96% 503 14 314
02/02/2016 8.8° 10.6° 13.3° 8.3° 10.2° 14.4° 2.6km/h dir SSO 11.3km/h dir S 8.7° 0 0.4 1023.8 1026.1 1029.3 71% 85.5% 93% 304 13 831
03/02/2016 3.3° 6.8° 10.2° 1.1° 6.3° 12.2° 5.5km/h dir NO 53.1km/h dir N 1.6° 5.8 6.2 7.8mm/h 1019.8 1025 1032.3 76% 87.3% 94% 613 9 204
04/02/2016 3.8° 5.2° 7.6° 3.3° 4.9° 9.4° 4.8km/h dir S 20.9km/h dir S 1.1° 5.2 11.4 2.6mm/h 1031.7 1033.3 1035.7 72% 88.3% 95% 373 11 374
05/02/2016 4.6° 7.3° 12.9° 1.7° 18.9° 2.6km/h dir S 16.1km/h dir S 0.6 12 1.6mm/h 1022.8 1027.8 1032 74% 92.1% 96% 657 20 204
06/02/2016 4.1° 10.8° 15.3° 1.7° 10.4° 17.2° 15.6km/h dir S 62.8km/h dir SO 2.6° 0.2 12.2 1006.6 1016.4 1022.9 54% 73.1% 96% 520 30 671
07/02/2016 3.7° 7.6° 12.9° 2.8° 6.9° 11.7° 8.7km/h dir S 38.6km/h dir SO 2.1° 20.6 32.8 35.8mm/h 1001.6 1009 1015.7 61% 83.8% 95% 169 7 371
08/02/2016 3.2° 8.6° 11.7° 1.7° 7.9° 12.2° 14.5km/h dir S 57.9km/h dir ESE 1.4° 0.4 33.2 1010.5 1013 1015.5 67% 78.5% 93% 659 8 454
09/02/2016 4.3° 9.9° 12.3° 2.8° 12.2° 18.2km/h dir S 77.2km/h dir S 1.9° 9.4 42.6 64.8mm/h 995.9 1003.6 1014.2 65% 78% 90% 181 4 322
10/02/2016 1.7° 4.5° 0.6° 11.1° 5.6km/h dir SSO 25.7km/h dir SSO 0.1° 1 43.6 1003 1005.9 1009.4 62% 77.5% 94% 577 15 448
11/02/2016 1.3° 3.8° 8.9° -0.6° 15° 4.3km/h dir S 20.9km/h dir SO -0.1° 2.2 45.8 3.6mm/h 1006.4 1009 1010.6 62% 87.3% 95% 786 24 575
12/02/2016 1.1° 4.6° 7.6° 8.9° 9.5km/h dir S 49.9km/h dir SSE -0.8° 12.4 58.2 18.8mm/h 993.2 999.4 1008.6 87% 93% 95% 439 7 088
13/02/2016 5.1° 11.5° 4.4° 7.6° 15.6° 11.7km/h dir S 51.5km/h dir SSE 1.2° 7.4 65.6 25mm/h 989.2 994.1 998.2 75% 86.4% 94% 775 17 421
14/02/2016 3.9° 9.9° 1.7° 6.4° 12.2° 6.1km/h dir S 35.4km/h dir S 14 79.6 21.6mm/h 985.4 992.8 1000.2 77% 89% 95% 654 15 416
15/02/2016 2.9° 3.7° 1.1° 3.2° 5.6° 11.3km/h dir N 37km/h dir N -1.1° 0.8 80.4 1000.3 1012.1 1023.5 81% 87.4% 95% 271 7 297
16/02/2016 1.8° 3.8° 6.7° 1.1° 3.9° 11.1° 16.4km/h dir N 41.8km/h dir N -3° 0 80.4 1023.6 1026.1 1027.5 71% 81.4% 88% 671 25 945
17/02/2016 1.9° 2.9° 4.1° 1.7° 2.7° 3.1km/h dir NNO 14.5km/h dir N -0.3° 0 80.4 1016.2 1019.6 1025.2 80% 86.4% 90% 149 8 224
18/02/2016 -0.6° 4.5° 8.8° -2.8° 3.9° 10° 5.6km/h dir S 32.2km/h dir SSO -1.9° 0.8 81.2 1mm/h 1014.6 1015.7 1019 67% 85% 94% 369 20 302
19/02/2016 2.2° 4.6° 8.1° -1.1° 4.9° 16.7° 4.3km/h dir NO 24.1km/h dir NNO 0.4° 0.6 81.8 1019.1 1024.7 1027.3 59% 80.3% 92% 700 30 930
20/02/2016 0.9° 6.3° 10.8° -1.7° 5.7° 11.7° 7.6km/h dir S 37km/h dir SSO -0.5° 0 81.8 1026.7 1027.5 1028.4 57% 72.5% 90% 403 16 439
21/02/2016 8.5° 12° 19.3° 4.4° 11.1° 22.2° 4.2km/h dir S 19.3km/h dir S 8.3° 0 81.8 1018.2 1024.4 1027.8 55% 71.6% 89% 659 29 891
22/02/2016 4.8° 8.4° 11.9° 1.1° 7.5° 15.6° 3.1km/h dir NO 16.1km/h dir NO 4.1° 0.2 82 1014.1 1017.1 1019 84% 91.4% 96% 469 15 999
23/02/2016 2.3° 7.6° 9.7° 9.4° 6.3km/h dir S 33.8km/h dir NNO 2.4° 10.2 92.2 19mm/h 1015.4 1017.3 1020.8 90% 93.4% 95% 105 5 741
24/02/2016 1.5° 5.3° 9.1° -1.1° 5.4° 11.7° 1.8km/h dir SO 12.9km/h dir SO 0.7° 0.2 92.4 1010 1015.7 1020.9 78% 90.6% 96% 431 19 554
25/02/2016 -1.4° 4.6° 8.2° -3.9° 3.9° 8.3° 6.3km/h dir N 22.5km/h dir N -1.4° 6.4 98.8 12.4mm/h 1009 1012.2 1015.5 82% 92% 95% 408 10 727
26/02/2016 -3.4° 0.6° 7.5° -5.6° 0.3° 10.6° 1.9km/h dir N 11.3km/h dir ESE -3.4° 0 98.8 1003 1009.8 1015.1 69% 89.7% 96% 615 29 777
27/02/2016 -2.5° 3.2° 9.7° -4.4° 2.6° 12.2° 5km/h dir N 20.9km/h dir N -4.7° 0.2 99 997 999.2 1003 72% 86% 95% 531 27 034
28/02/2016 -2.5° 3.2° 9.7° 4.9° 14.4° 5km/h dir N 32.2km/h dir N 0.2 99 998 1004.1 1007.1 71% 83.5% 92% 682 29 129
29/02/2016 2.2° 4.9° 9.6° 2.2° 3.4° 6.1° 7.2km/h dir N 40.2km/h dir 0 -1.2° 0 99 1005.3 1012.8 1022 79% 83.7% 93% 248 7 796

RETOUR ACCUEIL


Date de création : 02/03/2016 : 20:23
Catégorie : ARCHIVES 2002 à 2016 - ANNEES 2010 à 2019 - ANNEE 2016 - FEVRIER 2016
Page lue 1102 fois


Réactions à cet article

Personne n'a encore laissé de commentaire.
Soyez donc le premier !